| time (UTC) | temp F | wind direction | speed MPH | gust MPH | rain 1hr in | rain 24hr in | rain mn in | humidity % | barometer mb |
| 20260504185003 | 68 | 290 | 5.0 | 12.0 | 0.00 | 0.00 | 0.00 | 48 | 1015.3 |
| 20260504184503 | 68 | 286 | 6.0 | 14.0 | 0.00 | 0.00 | 0.00 | 46 | 1015.3 |
| 20260504184024 | 68 | 283 | 7.0 | 14.0 | 0.00 | 0.00 | 0.00 | 47 | 1015.4 |
| 20260504183524 | 68 | 269 | 5.0 | 14.0 | 0.00 | 0.00 | 0.00 | 49 | 1015.4 |
| 20260504183003 | 67 | 265 | 4.0 | 12.0 | 0.00 | 0.00 | 0.00 | 48 | 1015.5 |
| 20260504182503 | 66 | 271 | 4.0 | 12.0 | 0.00 | 0.00 | 0.00 | 50 | 1015.4 |
| 20260504182004 | 66 | 281 | 5.0 | 12.0 | 0.00 | 0.00 | 0.00 | 49 | 1015.6 |
| 20260504181503 | 66 | 293 | 7.0 | 15.0 | 0.00 | 0.00 | 0.00 | 51 | 1015.6 |
| 20260504181045 | 66 | 284 | 7.0 | 15.0 | 0.00 | 0.00 | 0.00 | 49 | 1015.6 |
| 20260504180503 | 66 | 261 | 5.0 | 14.0 | 0.00 | 0.00 | 0.00 | 50 | 1015.7 |
| 20260504180003 | 66 | 255 | 4.0 | 14.0 | 0.00 | 0.00 | 0.00 | 48 | 1015.7 |
| 20260504175503 | 66 | 278 | 4.0 | 11.0 | 0.00 | 0.00 | 0.00 | 49 | 1015.7 |
| 20260504175003 | 65 | 271 | 4.0 | 11.0 | 0.00 | 0.00 | 0.00 | 49 | 1015.6 |
| 20260504174503 | 65 | 282 | 5.0 | 12.0 | 0.00 | 0.00 | 0.00 | 47 | 1015.8 |
| 20260504174003 | 65 | 283 | 6.0 | 14.0 | 0.00 | 0.00 | 0.00 | 51 | 1015.8 |
| 20260504173503 | 65 | 268 | 7.0 | 14.0 | 0.00 | 0.00 | 0.00 | 47 | 1015.8 |
| 20260504173003 | 65 | 280 | 7.0 | 14.0 | 0.00 | 0.00 | 0.00 | 46 | 1015.9 |
| 20260504172524 | 66 | 285 | 7.0 | 14.0 | 0.00 | 0.00 | 0.00 | 46 | 1015.8 |
| 20260504172003 | 66 | 284 | 6.0 | 14.0 | 0.00 | 0.00 | 0.00 | 49 | 1015.8 |
| 20260504171503 | 66 | 285 | 5.0 | 13.0 | 0.00 | 0.00 | 0.00 | 46 | 1015.8 |
| 20260504171003 | 66 | 290 | 4.0 | 9.0 | 0.00 | 0.00 | 0.00 | 45 | 1015.7 |
| 20260504170503 | 66 | 313 | 4.0 | 11.0 | 0.00 | 0.00 | 0.00 | 43 | 1015.8 |
| 20260504151003 | 56 | 277 | 5.0 | 13.0 | 0.00 | 0.00 | 0.00 | 59 | 1017.3 |
| 20260504150503 | 55 | 299 | 3.0 | 10.0 | 0.00 | 0.00 | 0.00 | 58 | 1017.8 |
| 20260504141003 | 57 | 281 | 6.0 | 15.0 | 0.00 | 0.00 | 0.00 | 51 | 1017.3 |
| 20260504140503 | 57 | 274 | 7.0 | 16.0 | 0.00 | 0.00 | 0.00 | 51 | 1017.2 |
| 20260504130503 | 55 | 288 | 3.0 | 9.0 | 0.00 | 0.00 | 0.00 | 52 | 1016.4 |
| 20260504110503 | 45 | 198 | 2.0 | 8.0 | 0.00 | 0.00 | 0.00 | 70 | 1015.9 |
| 20260504100503 | 47 | 326 | 1.0 | 8.0 | 0.00 | 0.00 | 0.00 | 63 | 1015.7 |
| 20260504082003 | 44 | 303 | 3.0 | 11.0 | 0.00 | 0.00 | 0.00 | 70 | 1015.7 |
| 20260504081503 | 43 | 320 | 2.0 | 11.0 | 0.00 | 0.00 | 0.00 | 71 | 1015.7 |
| 20260504081003 | 42 | 13 | 1.0 | 6.0 | 0.00 | 0.00 | 0.00 | 70 | 1015.7 |
| 20260504080503 | 42 | 65 | 1.0 | 6.0 | 0.00 | 0.00 | 0.00 | 70 | 1015.7 |
| 20260504050503 | 42 | 167 | 2.0 | 5.0 | 0.00 | 0.00 | 0.00 | 61 | 1016.3 |
| 20260504050003 | 42 | 159 | 1.0 | 4.0 | 0.00 | 0.00 | 0.00 | 62 | 1016.4 |
| 20260504045503 | 42 | 153 | 1.0 | 2.0 | 0.00 | 0.00 | 0.00 | 62 | 1016.4 |
| 20260504045003 | 41 | 174 | 2.0 | 6.0 | 0.00 | 0.00 | 0.00 | 63 | 1016.4 |
| 20260504044504 | 41 | 232 | 2.0 | 6.0 | 0.00 | 0.00 | 0.00 | 63 | 1016.3 |
| 20260504044003 | 41 | 281 | 1.0 | 3.0 | 0.00 | 0.00 | 0.00 | 65 | 1016.3 |
| 20260504043503 | 41 | 281 | 1.0 | 2.0 | 0.00 | 0.00 | 0.00 | 66 | 1016.3 |
| 20260504043003 | 41 | 281 | 0.0 | 2.0 | 0.00 | 0.00 | 0.00 | 66 | 1016.3 |
| 20260504042524 | 41 | 281 | 0.0 | 1.0 | 0.00 | 0.00 | 0.00 | 65 | 1016.3 |
| 20260504042003 | 42 | 281 | 0.0 | 2.0 | 0.00 | 0.00 | 0.00 | 65 | 1016.4 |
| 20260504041524 | 42 | 282 | 1.0 | 4.0 | 0.00 | 0.00 | 0.00 | 65 | 1016.3 |
| 20260504041003 | 41 | 282 | 0.0 | 4.0 | 0.00 | 0.00 | 0.00 | 65 | 1016.3 |
| 20260504040503 | 41 | 119 | 0.0 | 2.0 | 0.00 | 0.00 | 0.00 | 64 | 1016.2 |
| 20260504040003 | 41 | 124 | 1.0 | 2.0 | 0.00 | 0.00 | 0.00 | 63 | 1016.1 |
| 20260504035545 | 41 | 123 | 1.0 | 2.0 | 0.00 | 0.00 | 0.00 | 63 | 1016.1 |
| 20260504035003 | 42 | 121 | 0.0 | 2.0 | 0.00 | 0.00 | 0.00 | 62 | 1016.1 |
| 20260504034503 | 42 | 121 | 1.0 | 3.0 | 0.00 | 0.00 | 0.00 | 59 | 1016.2 |
| 20260504034003 | 42 | 142 | 1.0 | 3.0 | 0.00 | 0.00 | 0.00 | 58 | 1016.1 |
| 20260504033503 | 42 | 171 | 0.0 | 3.0 | 0.00 | 0.00 | 0.00 | 57 | 1016.2 |
| 20260504033003 | 42 | 201 | 0.0 | 1.0 | 0.00 | 0.00 | 0.00 | 57 | 1016.1 |
| 20260504032545 | 43 | 201 | 0.0 | 1.0 | 0.00 | 0.00 | 0.00 | 57 | 1016.1 |
| 20260504032003 | 43 | 201 | 0.0 | 1.0 | 0.00 | 0.00 | 0.00 | 58 | 1016.1 |
| 20260504031503 | 43 | 201 | 0.0 | 1.0 | 0.00 | 0.00 | 0.00 | 57 | 1016.0 |
| 20260504031003 | 43 | 196 | 1.0 | 2.0 | 0.00 | 0.00 | 0.00 | 56 | 1016.0 |
| 20260504030524 | 43 | 160 | 1.0 | 2.0 | 0.00 | 0.00 | 0.00 | 56 | 1016.0 |
| 20260504030003 | 43 | 134 | 1.0 | 2.0 | 0.00 | 0.00 | 0.00 | 56 | 1016.1 |
| 20260504025524 | 43 | 151 | 1.0 | 5.0 | 0.00 | 0.00 | 0.00 | 56 | 1016.2 |
| 20260504025003 | 43 | 163 | 2.0 | 6.0 | 0.00 | 0.00 | 0.00 | 53 | 1016.1 |
| 20260504024503 | 43 | 158 | 2.0 | 6.0 | 0.00 | 0.00 | 0.00 | 55 | 1016.1 |
| 20260504024003 | 43 | 144 | 2.0 | 3.0 | 0.00 | 0.00 | 0.00 | 56 | 1016.3 |
| 20260504023503 | 43 | 145 | 1.0 | 3.0 | 0.00 | 0.00 | 0.00 | 54 | 1016.3 |
| 20260504023003 | 43 | 148 | 0.0 | 1.0 | 0.00 | 0.00 | 0.00 | 53 | 1016.4 |
| 20260504022524 | 43 | 148 | 0.0 | 2.0 | 0.00 | 0.00 | 0.00 | 54 | 1016.4 |
| 20260504022003 | 43 | 144 | 1.0 | 3.0 | 0.00 | 0.00 | 0.00 | 55 | 1016.4 |
| 20260504021503 | 44 | 165 | 1.0 | 3.0 | 0.00 | 0.00 | 0.00 | 53 | 1016.3 |
| 20260504021003 | 44 | 183 | 2.0 | 3.0 | 0.00 | 0.00 | 0.00 | 52 | 1016.3 |
| 20260504020503 | 44 | 191 | 1.0 | 3.0 | 0.00 | 0.00 | 0.00 | 52 | 1016.2 |
| 20260504020003 | 44 | 194 | 1.0 | 3.0 | 0.00 | 0.00 | 0.00 | 53 | 1016.2 |
| 20260504015524 | 44 | 194 | 0.0 | 1.0 | 0.00 | 0.00 | 0.00 | 51 | 1016.0 |
| 20260504015003 | 44 | 185 | 1.0 | 3.0 | 0.00 | 0.00 | 0.00 | 51 | 1015.9 |
| 20260504014503 | 44 | 164 | 1.0 | 4.0 | 0.00 | 0.00 | 0.00 | 51 | 1015.8 |
| 20260504014003 | 44 | 141 | 1.0 | 4.0 | 0.00 | 0.00 | 0.00 | 53 | 1015.7 |
| 20260504013503 | 45 | 130 | 1.0 | 3.0 | 0.00 | 0.00 | 0.00 | 50 | 1015.8 |
| 20260504013003 | 45 | 130 | 0.0 | 2.0 | 0.00 | 0.00 | 0.00 | 52 | 1015.9 |
| 20260504012503 | 45 | 130 | 1.0 | 2.0 | 0.00 | 0.00 | 0.00 | 53 | 1015.9 |
| 20260504012003 | 46 | 130 | 1.0 | 2.0 | 0.00 | 0.00 | 0.00 | 51 | 1015.9 |
| 20260504011524 | 46 | 130 | 0.0 | 2.0 | 0.00 | 0.00 | 0.00 | 51 | 1015.8 |
| 20260504011003 | 46 | 130 | 0.0 | 2.0 | 0.00 | 0.00 | 0.00 | 52 | 1015.6 |
| 20260504010503 | 47 | 130 | 0.0 | 2.0 | 0.00 | 0.00 | 0.00 | 51 | 1015.6 |
| 20260504010003 | 47 | 143 | 1.0 | 4.0 | 0.00 | 0.00 | 0.00 | 51 | 1015.6 |
| 20260504005503 | 48 | 151 | 2.0 | 4.0 | 0.00 | 0.00 | 0.00 | 48 | 1015.5 |
| 20260504005004 | 48 | 159 | 1.0 | 4.0 | 0.00 | 0.00 | 0.00 | 48 | 1015.5 |
| 20260504004503 | 49 | 156 | 1.0 | 4.0 | 0.00 | 0.00 | 0.00 | 46 | 1015.4 |
| 20260504004004 | 49 | 190 | 0.0 | 2.0 | 0.00 | 0.00 | 0.00 | 45 | 1015.5 |
| 20260504003503 | 50 | 190 | 1.0 | 2.0 | 0.00 | 0.00 | 0.00 | 44 | 1015.5 |
| 20260504003003 | 50 | 190 | 1.0 | 2.0 | 0.00 | 0.00 | 0.00 | 45 | 1015.5 |
| 20260504002545 | 51 | 208 | 1.0 | 5.0 | 0.00 | 0.00 | 0.00 | 44 | 1015.5 |
| 20260504002003 | 51 | 244 | 2.0 | 5.0 | 0.00 | 0.00 | 0.00 | 39 | 1015.4 |
| 20260504001503 | 51 | 212 | 2.0 | 4.0 | 0.00 | 0.00 | 0.00 | 39 | 1015.3 |
| 20260504001003 | 52 | 221 | 2.0 | 7.0 | 0.00 | 0.00 | 0.00 | 38 | 1015.3 |
| 20260504000524 | 52 | 249 | 3.0 | 8.0 | 0.00 | 0.00 | 0.00 | 35 | 1015.3 |
| 20260504000003 | 52 | 268 | 2.0 | 8.0 | 0.00 | 0.00 | 0.00 | 36 | 1015.3 |
| 20260503235503 | 53 | 281 | 3.0 | 11.0 | 0.00 | 0.00 | 0.00 | 35 | 1015.2 |
| 20260503235003 | 53 | 279 | 4.0 | 11.0 | 0.00 | 0.00 | 0.00 | 33 | 1015.3 |
| 20260503234503 | 54 | 281 | 4.0 | 11.0 | 0.00 | 0.00 | 0.00 | 33 | 1015.2 |
| 20260503234003 | 54 | 285 | 4.0 | 11.0 | 0.00 | 0.00 | 0.00 | 33 | 1015.2 |
| 20260503233524 | 54 | 290 | 4.0 | 12.0 | 0.00 | 0.00 | 0.00 | 32 | 1015.1 |
| 20260503233003 | 55 | 282 | 4.0 | 12.0 | 0.00 | 0.00 | 0.00 | 32 | 1015.1 |
| 20260503232524 | 55 | 279 | 4.0 | 9.0 | 0.00 | 0.00 | 0.00 | 32 | 1015.1 |
| 20260503232003 | 56 | 288 | 5.0 | 14.0 | 0.00 | 0.00 | 0.00 | 30 | 1015.0 |
| 20260503231503 | 56 | 291 | 6.0 | 14.0 | 0.00 | 0.00 | 0.00 | 30 | 1015.0 |
| 20260503231024 | 56 | 283 | 6.0 | 13.0 | 0.00 | 0.00 | 0.00 | 30 | 1015.0 |
| 20260503230503 | 57 | 276 | 4.0 | 10.0 | 0.00 | 0.00 | 0.00 | 29 | 1015.1 |
| 20260503230003 | 57 | 284 | 5.0 | 13.0 | 0.00 | 0.00 | 0.00 | 29 | 1015.1 |
| 20260503225524 | 57 | 285 | 5.0 | 13.0 | 0.00 | 0.00 | 0.00 | 30 | 1015.1 |
| 20260503225003 | 57 | 279 | 4.0 | 11.0 | 0.00 | 0.00 | 0.00 | 28 | 1015.2 |
| 20260503224503 | 57 | 269 | 5.0 | 11.0 | 0.00 | 0.00 | 0.00 | 27 | 1015.1 |
| 20260503224003 | 57 | 277 | 6.0 | 15.0 | 0.00 | 0.00 | 0.00 | 26 | 1015.2 |
| 20260503223503 | 57 | 290 | 7.0 | 16.0 | 0.00 | 0.00 | 0.00 | 27 | 1015.2 |
| 20260503223003 | 57 | 286 | 6.0 | 16.0 | 0.00 | 0.00 | 0.00 | 26 | 1015.3 |
| 20260503222503 | 57 | 279 | 7.0 | 16.0 | 0.00 | 0.00 | 0.00 | 27 | 1015.1 |
| 20260503222003 | 57 | 286 | 6.0 | 16.0 | 0.00 | 0.00 | 0.00 | 27 | 1015.1 |
| 20260503221503 | 57 | 290 | 7.0 | 16.0 | 0.00 | 0.00 | 0.00 | 28 | 1015.3 |
| 20260503221003 | 58 | 293 | 9.0 | 16.0 | 0.00 | 0.00 | 0.00 | 28 | 1015.2 |
| 20260503220524 | 58 | 295 | 8.0 | 16.0 | 0.00 | 0.00 | 0.00 | 26 | 1015.3 |
| 20260503220024 | 58 | 292 | 6.0 | 14.0 | 0.00 | 0.00 | 0.00 | 28 | 1015.3 |
| 20260503215503 | 59 | 290 | 5.0 | 11.0 | 0.00 | 0.00 | 0.00 | 28 | 1015.3 |
| 20260503215003 | 58 | 298 | 6.0 | 15.0 | 0.00 | 0.00 | 0.00 | 27 | 1015.3 |
| 20260503214503 | 58 | 298 | 6.0 | 15.0 | 0.00 | 0.00 | 0.00 | 27 | 1015.3 |
| 20260503214003 | 58 | 305 | 6.0 | 14.0 | 0.00 | 0.00 | 0.00 | 26 | 1015.3 |
| 20260503213503 | 58 | 315 | 6.0 | 14.0 | 0.00 | 0.00 | 0.00 | 27 | 1015.4 |
| 20260503213003 | 58 | 304 | 6.0 | 14.0 | 0.00 | 0.00 | 0.00 | 28 | 1015.5 |
| 20260503212503 | 58 | 298 | 6.0 | 14.0 | 0.00 | 0.00 | 0.00 | 27 | 1015.4 |
| 20260503212003 | 58 | 302 | 7.0 | 14.0 | 0.00 | 0.00 | 0.00 | 28 | 1015.5 |
| 20260503211503 | 58 | 299 | 7.0 | 14.0 | 0.00 | 0.00 | 0.00 | 28 | 1015.6 |
| 20260503211003 | 58 | 299 | 7.0 | 14.0 | 0.00 | 0.00 | 0.00 | 27 | 1015.7 |
| 20260503210524 | 58 | 303 | 7.0 | 13.0 | 0.00 | 0.00 | 0.00 | 28 | 1015.7 |
| 20260503210004 | 58 | 296 | 8.0 | 16.0 | 0.00 | 0.00 | 0.00 | 27 | 1015.8 |
| 20260503205503 | 58 | 288 | 7.0 | 16.0 | 0.00 | 0.00 | 0.00 | 27 | 1015.7 |
| 20260503205003 | 58 | 276 | 6.0 | 15.0 | 0.00 | 0.00 | 0.00 | 26 | 1015.8 |
| 20260503204503 | 58 | 271 | 6.0 | 14.0 | 0.00 | 0.00 | 0.00 | 27 | 1015.9 |
| 20260503204003 | 58 | 279 | 6.0 | 15.0 | 0.00 | 0.00 | 0.00 | 26 | 1016.0 |
| 20260503203503 | 58 | 271 | 6.0 | 15.0 | 0.00 | 0.00 | 0.00 | 25 | 1016.0 |
| 20260503202503 | 59 | 294 | 7.0 | 17.0 | 0.00 | 0.00 | 0.00 | 28 | 1016.0 |
| 20260503202003 | 59 | 315 | 6.0 | 17.0 | 0.00 | 0.00 | 0.00 | 31 | 1015.9 |
| 20260503201503 | 59 | 289 | 5.0 | 12.0 | 0.00 | 0.00 | 0.00 | 33 | 1016.0 |
| 20260503201003 | 59 | 278 | 6.0 | 13.0 | 0.00 | 0.00 | 0.00 | 33 | 1016.1 |
| 20260503200503 | 58 | 288 | 5.0 | 13.0 | 0.00 | 0.00 | 0.00 | 34 | 1016.0 |
| 20260503200003 | 58 | 282 | 4.0 | 9.0 | 0.00 | 0.00 | 0.00 | 31 | 1016.1 |
| 20260503195503 | 59 | 287 | 4.0 | 13.0 | 0.00 | 0.00 | 0.00 | 32 | 1016.1 |
| 20260503195003 | 59 | 288 | 6.0 | 13.0 | 0.00 | 0.00 | 0.00 | 32 | 1016.3 |
| 20260503194503 | 59 | 278 | 4.0 | 11.0 | 0.00 | 0.00 | 0.00 | 32 | 1016.2 |
| 20260503194003 | 59 | 300 | 2.0 | 7.0 | 0.00 | 0.00 | 0.00 | 30 | 1016.1 |
| 20260503193524 | 59 | 303 | 3.0 | 10.0 | 0.00 | 0.00 | 0.00 | 32 | 1016.1 |
| 20260503193003 | 58 | 291 | 5.0 | 12.0 | 0.00 | 0.00 | 0.00 | 30 | 1016.2 |
| 20260503192503 | 59 | 293 | 6.0 | 12.0 | 0.00 | 0.00 | 0.00 | 33 | 1016.3 |
| 20260503192003 | 58 | 277 | 4.0 | 12.0 | 0.00 | 0.00 | 0.00 | 31 | 1016.4 |
| 20260503191524 | 59 | 251 | 4.0 | 9.0 | 0.00 | 0.00 | 0.00 | 30 | 1016.4 |
| 20260503191024 | 59 | 219 | 4.0 | 9.0 | 0.00 | 0.00 | 0.00 | 30 | 1016.4 |
| 20260503190503 | 59 | 276 | 4.0 | 12.0 | 0.00 | 0.00 | 0.00 | 28 | 1016.6 |
| 20260503190003 | 59 | 312 | 3.0 | 12.0 | 0.00 | 0.00 | 0.00 | 33 | 1016.5 |
| 20260503185503 | 58 | 308 | 3.0 | 8.0 | 0.00 | 0.00 | 0.00 | 30 | 1016.5 |